Ahousat, Canada
Current Conditions -  °F | °C
As of 2:00 PM on Saturday 25 Oct 2014 (Local Time) from CYAZ Reporting Station
Light Rain Light Rain  
Wind Chill: 54°   Ceiling: 700
Heat Index: 54°   Visibility: 3mi
Dew Point: 52°   Wind: 7mph
Humidity: 94%   Direction: 90°E
Pressure: 29.27"   Gusts: NA
Location:  49.28°N, 126.08°W
Report Text: CYAZ 252100Z 09006KT 3SM -RA BR FEW004 BKN007 OVC014 12/11 A2927 RMK ST1SF4SC3 SLP911 DENSITY ALT 400FT
Loading
Personal Weather Stations






























Interactive Weather Map
Tropical Storm Tracking
New forecast layout! Learn more

10-Day Weather Forecast

Advertisements
Track Severe Weather on mobile